createdAt,value
2023-04-16T00:00:23.427Z,87981.00
2023-04-16T00:01:23.413Z,87983.00
2023-04-16T00:02:23.490Z,87981.00
2023-04-16T00:03:23.559Z,87983.00
2023-04-16T00:04:23.429Z,87983.00
2023-04-16T00:05:23.311Z,87987.00
2023-04-16T00:06:23.293Z,87987.00
2023-04-16T00:07:23.254Z,87987.00
2023-04-16T00:08:23.249Z,87985.00
2023-04-16T00:09:23.234Z,87987.00
2023-04-16T00:10:23.220Z,87985.00
2023-04-16T00:11:23.588Z,87985.00
2023-04-16T00:12:23.189Z,87989.00
2023-04-16T00:13:23.191Z,87989.00
2023-04-16T00:14:23.167Z,87987.00
2023-04-16T00:15:23.158Z,87983.00
2023-04-16T00:16:23.252Z,87985.00
2023-04-16T00:17:23.156Z,87985.00
2023-04-16T00:18:23.138Z,87985.00
2023-04-16T00:19:23.129Z,87985.00
2023-04-16T00:20:23.145Z,87985.00
2023-04-16T00:21:23.142Z,87987.00
2023-04-16T00:22:23.135Z,87985.00
2023-04-16T00:23:23.138Z,87981.00
2023-04-16T00:24:23.129Z,87983.00
2023-04-16T00:25:23.109Z,87983.00
2023-04-16T00:26:23.107Z,87983.00
2023-04-16T00:27:23.116Z,87985.00
2023-04-16T00:28:23.110Z,87981.00
2023-04-16T00:29:23.088Z,87983.00
2023-04-16T00:30:23.080Z,87985.00
2023-04-16T00:31:23.147Z,87987.00
2023-04-16T00:32:23.071Z,87985.00
2023-04-16T00:33:23.047Z,87983.00
2023-04-16T00:34:23.053Z,87983.00
2023-04-16T00:35:23.039Z,87985.00
2023-04-16T00:36:23.044Z,87983.00
2023-04-16T00:37:23.024Z,87985.00
2023-04-16T00:38:23.013Z,87985.00
2023-04-16T00:39:22.996Z,87985.00
2023-04-16T00:40:22.994Z,87985.00
2023-04-16T00:41:23.037Z,87987.00
2023-04-16T00:42:22.992Z,87989.00
2023-04-16T00:43:23.022Z,87985.00
2023-04-16T00:44:22.978Z,87985.00
2023-04-16T00:45:22.979Z,87985.00
2023-04-16T00:46:23.028Z,87985.00
2023-04-16T00:47:22.977Z,87985.00
2023-04-16T00:48:22.975Z,87987.00
2023-04-16T00:49:22.942Z,87987.00
2023-04-16T00:50:22.913Z,87987.00
2023-04-16T00:51:22.926Z,87985.00
2023-04-16T00:52:22.872Z,87985.00
2023-04-16T00:53:22.858Z,87983.00
2023-04-16T00:54:22.821Z,87985.00
2023-04-16T00:55:22.802Z,87981.00
2023-04-16T00:56:22.778Z,87981.00
2023-04-16T00:57:22.757Z,87983.00
2023-04-16T00:58:22.758Z,87981.00
2023-04-16T00:59:22.719Z,87983.00
2023-04-16T01:00:22.701Z,87983.00
2023-04-16T01:01:22.742Z,87985.00
2023-04-16T01:02:22.878Z,87985.00
2023-04-16T01:03:22.801Z,87987.00
2023-04-16T01:04:22.726Z,87985.00
2023-04-16T01:05:22.569Z,87987.00
2023-04-16T01:06:22.535Z,87985.00
2023-04-16T01:07:22.530Z,87983.00
2023-04-16T01:08:22.491Z,87983.00
2023-04-16T01:09:22.473Z,87987.00
2023-04-16T01:10:22.458Z,87987.00
2023-04-16T01:11:22.425Z,87987.00
2023-04-16T01:12:22.404Z,87989.00
2023-04-16T01:13:22.368Z,87987.00
2023-04-16T01:14:22.346Z,87987.00
2023-04-16T01:15:22.356Z,87987.00
2023-04-16T01:16:22.478Z,87987.00
2023-04-16T01:17:22.391Z,87989.00
2023-04-16T01:18:22.341Z,87987.00
2023-04-16T01:19:22.352Z,87989.00
2023-04-16T01:20:22.344Z,87991.00
2023-04-16T01:21:22.350Z,87989.00
2023-04-16T01:22:22.347Z,87993.00
2023-04-16T01:23:22.316Z,87991.00
2023-04-16T01:24:22.299Z,87989.00
2023-04-16T01:25:22.271Z,87991.00
2023-04-16T01:26:22.256Z,87991.00
2023-04-16T01:27:22.225Z,87991.00
2023-04-16T01:28:22.191Z,87991.00
2023-04-16T01:29:22.173Z,87991.00
2023-04-16T01:30:22.160Z,87993.00
2023-04-16T01:31:22.165Z,87993.00
2023-04-16T01:32:22.117Z,87993.00
2023-04-16T01:33:22.096Z,87995.00
2023-04-16T01:34:22.067Z,87991.00
2023-04-16T01:35:22.049Z,87993.00
2023-04-16T01:36:22.027Z,87995.00
2023-04-16T01:37:22.013Z,87995.00
2023-04-16T01:38:21.986Z,87995.00
2023-04-16T01:39:21.968Z,87995.00
2023-04-16T01:40:21.952Z,87995.00
2023-04-16T01:41:21.939Z,87996.00
2023-04-16T01:42:21.907Z,87996.00
2023-04-16T01:43:21.880Z,87996.00
2023-04-16T01:44:21.857Z,87996.00
2023-04-16T01:45:21.853Z,87995.00
2023-04-16T01:46:21.828Z,87996.00
2023-04-16T01:47:21.850Z,87998.00
2023-04-16T01:48:21.780Z,87998.00
2023-04-16T01:49:21.760Z,87998.00
2023-04-16T01:50:21.750Z,88000.00
2023-04-16T01:51:21.729Z,88002.00
2023-04-16T01:52:21.713Z,88002.00
2023-04-16T01:53:21.686Z,88009.00
2023-04-16T01:54:21.666Z,88009.00
2023-04-16T01:55:21.656Z,88009.00
2023-04-16T01:56:21.624Z,88000.00
2023-04-16T01:57:21.595Z,88002.00
2023-04-16T01:58:21.558Z,88009.00
2023-04-16T01:59:21.544Z,88002.00
2023-04-16T02:00:21.510Z,88009.00
2023-04-16T02:01:21.559Z,88009.00
2023-04-16T02:02:21.543Z,88002.00
2023-04-16T02:03:21.602Z,88002.00
2023-04-16T02:04:21.407Z,88000.00
2023-04-16T02:05:21.403Z,88000.00
2023-04-16T02:06:21.387Z,88009.00
2023-04-16T02:07:21.397Z,88000.00
2023-04-16T02:08:21.381Z,88002.00
2023-04-16T02:09:21.356Z,88009.00
2023-04-16T02:10:21.318Z,88009.00
2023-04-16T02:11:21.310Z,88009.00
2023-04-16T02:12:21.285Z,88011.00
2023-04-16T02:13:21.249Z,88009.00
2023-04-16T02:14:21.223Z,88011.00
2023-04-16T02:15:21.207Z,88009.00
2023-04-16T02:16:21.263Z,88009.00
2023-04-16T02:17:21.174Z,88013.00
2023-04-16T02:18:21.123Z,88015.00
2023-04-16T02:19:21.096Z,88013.00
2023-04-16T02:20:21.072Z,88013.00
2023-04-16T02:21:21.049Z,88017.00
2023-04-16T02:22:21.044Z,88015.00
2023-04-16T02:23:20.996Z,88015.00
2023-04-16T02:24:20.950Z,88017.00
2023-04-16T02:25:20.928Z,88019.00
2023-04-16T02:26:20.897Z,88017.00
2023-04-16T02:27:20.932Z,88019.00
2023-04-16T02:28:20.859Z,88019.00
2023-04-16T02:29:20.817Z,88019.00
2023-04-16T02:30:20.780Z,88019.00
2023-04-16T02:31:20.775Z,88019.00
2023-04-16T02:32:20.779Z,88021.00
2023-04-16T02:33:20.700Z,88019.00
2023-04-16T02:34:20.699Z,88021.00
2023-04-16T02:35:20.692Z,88019.00
2023-04-16T02:36:20.696Z,88021.00
2023-04-16T02:37:20.703Z,88019.00
2023-04-16T02:38:20.712Z,88019.00
2023-04-16T02:39:20.714Z,88021.00
2023-04-16T02:40:20.753Z,88021.00
2023-04-16T02:41:20.711Z,88025.00
2023-04-16T02:42:20.717Z,88025.00
2023-04-16T02:43:20.725Z,88025.00
2023-04-16T02:44:20.713Z,88025.00
2023-04-16T02:45:20.716Z,88023.00
2023-04-16T02:46:20.746Z,88025.00
2023-04-16T02:47:20.726Z,88025.00
2023-04-16T02:48:20.713Z,88027.00
2023-04-16T02:49:20.727Z,88025.00
2023-04-16T02:50:20.710Z,88029.00
2023-04-16T02:51:20.717Z,88027.00
2023-04-16T02:52:20.697Z,88027.00
2023-04-16T02:53:20.711Z,88027.00
2023-04-16T02:54:20.694Z,88027.00
2023-04-16T02:55:20.713Z,88027.00
2023-04-16T02:56:20.720Z,88031.00
2023-04-16T02:57:20.718Z,88031.00
2023-04-16T02:58:20.737Z,88029.00
2023-04-16T02:59:20.737Z,88025.00
2023-04-16T03:00:20.734Z,88023.00
2023-04-16T03:01:20.796Z,88023.00
2023-04-16T03:02:20.786Z,88023.00
2023-04-16T03:03:20.796Z,88023.00
2023-04-16T03:04:20.858Z,88023.00
2023-04-16T03:05:20.848Z,88025.00
2023-04-16T03:06:20.888Z,88023.00
2023-04-16T03:07:20.930Z,88023.00
2023-04-16T03:08:20.972Z,88023.00
2023-04-16T03:09:21.034Z,88021.00
2023-04-16T03:10:21.072Z,88021.00
2023-04-16T03:11:21.115Z,88025.00
2023-04-16T03:12:21.167Z,88023.00
2023-04-16T03:13:21.139Z,88023.00
2023-04-16T03:14:21.103Z,88027.00
2023-04-16T03:15:21.102Z,88027.00
2023-04-16T03:16:21.089Z,88027.00
2023-04-16T03:17:21.100Z,88027.00
2023-04-16T03:18:21.038Z,88027.00
2023-04-16T03:19:21.032Z,88033.00
2023-04-16T03:20:21.022Z,88033.00
2023-04-16T03:21:21.015Z,88027.00
2023-04-16T03:22:20.981Z,88029.00
2023-04-16T03:23:20.988Z,88033.00
2023-04-16T03:24:20.998Z,88031.00
2023-04-16T03:25:21.005Z,88031.00
2023-04-16T03:26:20.992Z,88031.00
2023-04-16T03:27:20.986Z,88033.00
2023-04-16T03:28:21.021Z,88033.00
2023-04-16T03:29:21.032Z,88035.00
2023-04-16T03:30:21.049Z,88031.00
2023-04-16T03:31:21.077Z,88035.00
2023-04-16T03:32:21.087Z,88033.00
2023-04-16T03:33:21.044Z,88031.00
2023-04-16T03:34:21.036Z,88035.00
2023-04-16T03:35:21.071Z,88037.00
2023-04-16T03:36:21.037Z,88033.00
2023-04-16T03:37:21.020Z,88031.00
2023-04-16T03:38:21.015Z,88035.00
2023-04-16T03:39:21.006Z,88037.00
2023-04-16T03:40:21.006Z,88033.00
2023-04-16T03:41:21.003Z,88035.00
2023-04-16T03:42:20.983Z,88039.00
2023-04-16T03:43:21.012Z,88041.00
2023-04-16T03:44:20.986Z,88035.00
2023-04-16T03:45:20.987Z,88037.00
2023-04-16T03:46:21.140Z,88035.00
2023-04-16T03:47:21.015Z,88039.00
2023-04-16T03:48:20.988Z,88035.00
2023-04-16T03:49:20.990Z,88035.00
2023-04-16T03:50:20.990Z,88043.00
2023-04-16T03:51:21.001Z,88047.00
2023-04-16T03:52:21.007Z,88045.00
2023-04-16T03:53:21.020Z,88045.00
2023-04-16T03:54:22.850Z,88047.00
2023-04-16T03:55:21.014Z,88051.00
2023-04-16T03:56:21.025Z,88049.00
2023-04-16T03:57:21.039Z,88053.00
2023-04-16T03:58:21.049Z,88053.00
2023-04-16T03:59:21.049Z,88053.00
2023-04-16T04:00:21.039Z,88053.00
2023-04-16T04:01:21.049Z,88055.00
2023-04-16T04:02:21.133Z,88055.00
2023-04-16T04:03:21.277Z,88053.00
2023-04-16T04:04:21.157Z,88055.00
2023-04-16T04:05:21.094Z,88055.00
2023-04-16T04:06:21.098Z,88055.00
2023-04-16T04:07:21.103Z,88053.00
2023-04-16T04:08:21.126Z,88055.00
2023-04-16T04:09:21.121Z,88051.00
2023-04-16T04:10:21.124Z,88055.00
2023-04-16T04:11:21.137Z,88053.00
2023-04-16T04:12:21.153Z,88053.00
2023-04-16T04:13:21.180Z,88055.00
2023-04-16T04:14:21.196Z,88055.00
2023-04-16T04:15:21.188Z,88055.00
2023-04-16T04:16:21.221Z,88056.00
2023-04-16T04:17:21.222Z,88062.00
2023-04-16T04:18:21.235Z,88064.00
2023-04-16T04:19:21.246Z,88064.00
2023-04-16T04:20:21.249Z,88062.00
2023-04-16T04:21:21.247Z,88066.00
2023-04-16T04:22:21.263Z,88064.00
2023-04-16T04:23:21.275Z,88064.00
2023-04-16T04:24:21.281Z,88062.00
2023-04-16T04:25:21.293Z,88062.00
2023-04-16T04:26:21.330Z,88060.00
2023-04-16T04:27:21.311Z,88062.00
2023-04-16T04:28:21.328Z,88066.00
2023-04-16T04:29:21.350Z,88070.00
2023-04-16T04:30:21.357Z,88076.00
2023-04-16T04:31:21.369Z,88078.00
2023-04-16T04:32:21.380Z,88078.00
2023-04-16T04:33:21.402Z,88080.00
2023-04-16T04:34:21.402Z,88074.00
2023-04-16T04:35:21.472Z,88068.00
2023-04-16T04:36:21.450Z,88068.00
2023-04-16T04:37:21.480Z,88072.00
2023-04-16T04:38:21.495Z,88072.00
2023-04-16T04:39:21.511Z,88074.00
2023-04-16T04:40:21.529Z,88078.00
2023-04-16T04:41:21.532Z,88080.00
2023-04-16T04:42:21.539Z,88080.00
2023-04-16T04:43:21.557Z,88078.00
2023-04-16T04:44:21.562Z,88076.00
2023-04-16T04:45:21.578Z,88080.00
2023-04-16T04:46:21.779Z,88084.00
2023-04-16T04:47:21.622Z,88082.00
2023-04-16T04:48:21.613Z,88084.00
2023-04-16T04:49:21.634Z,88086.00
2023-04-16T04:50:21.652Z,88088.00
2023-04-16T04:51:21.674Z,88088.00
2023-04-16T04:52:21.677Z,88088.00
2023-04-16T04:53:21.711Z,88090.00
2023-04-16T04:54:21.728Z,88090.00
2023-04-16T04:55:21.754Z,88090.00
2023-04-16T04:56:21.782Z,88088.00
2023-04-16T04:57:21.797Z,88092.00
2023-04-16T04:58:21.814Z,88092.00
2023-04-16T04:59:21.840Z,88090.00
2023-04-16T05:00:21.844Z,88090.00
2023-04-16T05:01:21.915Z,88092.00
2023-04-16T05:02:21.980Z,88094.00
2023-04-16T05:03:22.059Z,88090.00
2023-04-16T05:04:21.928Z,88088.00
2023-04-16T05:05:22.021Z,88092.00
2023-04-16T05:06:21.969Z,88092.00
2023-04-16T05:07:22.001Z,88092.00
2023-04-16T05:08:22.012Z,88094.00
2023-04-16T05:09:22.046Z,88096.00
2023-04-16T05:10:22.056Z,88098.00
2023-04-16T05:11:22.078Z,88098.00
2023-04-16T05:12:22.092Z,88096.00
2023-04-16T05:13:22.115Z,88100.00
2023-04-16T05:14:22.150Z,88102.00
2023-04-16T05:15:22.180Z,88098.00
2023-04-16T05:16:22.255Z,88100.00
2023-04-16T05:17:22.248Z,88100.00
2023-04-16T05:18:22.280Z,88100.00
2023-04-16T05:19:22.314Z,88102.00
2023-04-16T05:20:22.327Z,88103.00
2023-04-16T05:21:22.352Z,88105.00
2023-04-16T05:22:22.392Z,88105.00
2023-04-16T05:23:22.443Z,88105.00
2023-04-16T05:24:22.464Z,88103.00
2023-04-16T05:25:22.475Z,88107.00
2023-04-16T05:26:22.509Z,88109.00
2023-04-16T05:27:22.530Z,88105.00
2023-04-16T05:28:22.552Z,88107.00
2023-04-16T05:29:22.582Z,88105.00
2023-04-16T05:30:22.611Z,88109.00
2023-04-16T05:31:22.684Z,88105.00
2023-04-16T05:32:22.748Z,88107.00
2023-04-16T05:33:22.711Z,88107.00
2023-04-16T05:34:22.740Z,88111.00
2023-04-16T05:35:22.751Z,88111.00
2023-04-16T05:36:22.780Z,88111.00
2023-04-16T05:37:22.828Z,88117.00
2023-04-16T05:38:22.838Z,88119.00
2023-04-16T05:39:22.871Z,88117.00
2023-04-16T05:40:22.910Z,88117.00
2023-04-16T05:41:22.912Z,88117.00
2023-04-16T05:42:22.944Z,88119.00
2023-04-16T05:43:22.961Z,88117.00
2023-04-16T05:44:22.991Z,88119.00
2023-04-16T05:45:23.028Z,88119.00
2023-04-16T05:46:23.088Z,88121.00
2023-04-16T05:47:23.066Z,88121.00
2023-04-16T05:48:23.092Z,88125.00
2023-04-16T05:49:23.125Z,88123.00
2023-04-16T05:50:23.158Z,88127.00
2023-04-16T05:51:23.177Z,88123.00
2023-04-16T05:52:23.212Z,88131.00
2023-04-16T05:53:23.237Z,88129.00
2023-04-16T05:54:23.274Z,88131.00
2023-04-16T05:55:23.271Z,88131.00
2023-04-16T05:56:23.272Z,88133.00
2023-04-16T05:57:23.269Z,88135.00
2023-04-16T05:58:23.285Z,88135.00
2023-04-16T05:59:23.267Z,88137.00
2023-04-16T06:00:23.257Z,88139.00
2023-04-16T06:01:23.248Z,88139.00
2023-04-16T06:02:23.405Z,88137.00
2023-04-16T06:03:23.314Z,88135.00
2023-04-16T06:04:23.443Z,88141.00
2023-04-16T06:05:23.292Z,88141.00
2023-04-16T06:06:23.248Z,88137.00
2023-04-16T06:07:23.248Z,88139.00
2023-04-16T06:08:23.266Z,88143.00
2023-04-16T06:09:23.260Z,88141.00
2023-04-16T06:10:23.271Z,88141.00
2023-04-16T06:11:23.271Z,88141.00
2023-04-16T06:12:23.304Z,88147.00
2023-04-16T06:13:23.287Z,88143.00
2023-04-16T06:14:23.303Z,88143.00
2023-04-16T06:15:23.313Z,88145.00
2023-04-16T06:16:23.327Z,88145.00
2023-04-16T06:17:23.335Z,88145.00
2023-04-16T06:18:23.279Z,88145.00
2023-04-16T06:19:23.283Z,88145.00
2023-04-16T06:20:23.283Z,88143.00
2023-04-16T06:21:23.279Z,88145.00
2023-04-16T06:22:23.287Z,88141.00
2023-04-16T06:23:23.274Z,88141.00
2023-04-16T06:24:23.279Z,88141.00
2023-04-16T06:25:23.283Z,88141.00
2023-04-16T06:26:23.308Z,88139.00
2023-04-16T06:27:23.289Z,88141.00
2023-04-16T06:28:23.279Z,88141.00
2023-04-16T06:29:33.515Z,88137.00
2023-04-16T06:30:24.284Z,88135.00
2023-04-16T06:31:23.340Z,88139.00
2023-04-16T06:32:23.307Z,88141.00
2023-04-16T06:33:23.294Z,88141.00
2023-04-16T06:34:23.310Z,88143.00
2023-04-16T06:35:23.288Z,88145.00
2023-04-16T06:36:23.292Z,88145.00
2023-04-16T06:37:23.287Z,88150.00
2023-04-16T06:38:23.286Z,88149.00
2023-04-16T06:39:23.295Z,88150.00
2023-04-16T06:40:23.290Z,88152.00
2023-04-16T06:41:23.284Z,88150.00
2023-04-16T06:42:23.322Z,88147.00
2023-04-16T06:43:23.287Z,88150.00
2023-04-16T06:44:23.303Z,88154.00
2023-04-16T06:45:23.311Z,88154.00
2023-04-16T06:46:23.317Z,88150.00
2023-04-16T06:47:23.340Z,88152.00
2023-04-16T06:48:23.306Z,88152.00
2023-04-16T06:49:23.297Z,88156.00
2023-04-16T06:50:23.310Z,88152.00
2023-04-16T06:51:23.298Z,88154.00
2023-04-16T06:52:23.300Z,88152.00
2023-04-16T06:53:23.292Z,88152.00
2023-04-16T06:54:23.296Z,88154.00
2023-04-16T06:55:23.301Z,88154.00
2023-04-16T06:56:23.296Z,88150.00
2023-04-16T06:57:23.286Z,88152.00
2023-04-16T06:58:23.296Z,88156.00
2023-04-16T06:59:23.282Z,88150.00
2023-04-16T07:00:23.285Z,88152.00
2023-04-16T07:01:23.302Z,88150.00
2023-04-16T07:02:23.340Z,88152.00
2023-04-16T07:03:23.468Z,88152.00
2023-04-16T07:04:23.379Z,88150.00
2023-04-16T07:05:23.372Z,88152.00
2023-04-16T07:06:23.410Z,88152.00
2023-04-16T07:07:23.440Z,88152.00
2023-04-16T07:08:23.488Z,88154.00
2023-04-16T07:09:23.517Z,88154.00
2023-04-16T07:10:23.553Z,88152.00
2023-04-16T07:11:23.576Z,88152.00
2023-04-16T07:12:23.618Z,88154.00
2023-04-16T07:13:23.637Z,88152.00
2023-04-16T07:14:23.666Z,88152.00
2023-04-16T07:15:23.703Z,88156.00
2023-04-16T07:16:23.763Z,88156.00
2023-04-16T07:17:23.764Z,88156.00
2023-04-16T07:18:23.804Z,88156.00
2023-04-16T07:19:23.827Z,88158.00
2023-04-16T07:20:23.875Z,88156.00
2023-04-16T07:21:23.890Z,88160.00
2023-04-16T07:22:23.918Z,88158.00
2023-04-16T07:23:23.940Z,88156.00
2023-04-16T07:24:23.965Z,88160.00
2023-04-16T07:25:23.981Z,88160.00
2023-04-16T07:26:24.009Z,88162.00
2023-04-16T07:27:24.026Z,88160.00
2023-04-16T07:28:24.066Z,88162.00
2023-04-16T07:29:24.070Z,88164.00
2023-04-16T07:30:24.166Z,88166.00
2023-04-16T07:31:24.153Z,88164.00
2023-04-16T07:32:24.403Z,88168.00
2023-04-16T07:33:24.165Z,88168.00
2023-04-16T07:34:24.186Z,88170.00
2023-04-16T07:35:24.221Z,88172.00
2023-04-16T07:36:24.229Z,88174.00
2023-04-16T07:37:24.243Z,88172.00
2023-04-16T07:38:24.269Z,88172.00
2023-04-16T07:39:24.298Z,88172.00
2023-04-16T07:40:24.405Z,88176.00
2023-04-16T07:41:24.339Z,88174.00
2023-04-16T07:42:24.359Z,88172.00
2023-04-16T07:43:24.389Z,88174.00
2023-04-16T07:44:24.556Z,88172.00
2023-04-16T07:45:24.497Z,88172.00
2023-04-16T07:46:25.017Z,88172.00
2023-04-16T07:47:24.480Z,88174.00
2023-04-16T07:48:24.500Z,88176.00
2023-04-16T07:49:24.524Z,88174.00
2023-04-16T07:50:24.557Z,88178.00
2023-04-16T07:51:24.557Z,88174.00
2023-04-16T07:52:24.577Z,88176.00
2023-04-16T07:53:24.592Z,88178.00
2023-04-16T07:54:24.617Z,88178.00
2023-04-16T07:55:24.637Z,88178.00
2023-04-16T07:56:24.671Z,88180.00
2023-04-16T07:57:24.680Z,88184.00
2023-04-16T07:58:24.706Z,88180.00
2023-04-16T07:59:24.762Z,88184.00
2023-04-16T08:00:24.757Z,88186.00
2023-04-16T08:01:24.766Z,88182.00
2023-04-16T08:02:24.895Z,88186.00
2023-04-16T08:03:25.012Z,88186.00
2023-04-16T08:04:25.696Z,88190.00
2023-04-16T08:05:24.907Z,88188.00
2023-04-16T08:06:24.851Z,88188.00
2023-04-16T08:07:24.866Z,88190.00
2023-04-16T08:08:24.890Z,88194.00
2023-04-16T08:09:24.894Z,88194.00
2023-04-16T08:10:24.913Z,88198.00
2023-04-16T08:11:24.934Z,88198.00
2023-04-16T08:12:24.948Z,88200.00
2023-04-16T08:13:24.969Z,88200.00
2023-04-16T08:14:24.998Z,88200.00
2023-04-16T08:15:25.005Z,88202.00
2023-04-16T08:16:25.118Z,88198.00
2023-04-16T08:17:25.072Z,88198.00
2023-04-16T08:18:25.050Z,88202.00
2023-04-16T08:19:25.027Z,88202.00
2023-04-16T08:20:25.039Z,88204.00
2023-04-16T08:21:25.007Z,88205.00
2023-04-16T08:22:24.997Z,88202.00
2023-04-16T08:23:24.988Z,88204.00
2023-04-16T08:24:24.991Z,88205.00
2023-04-16T08:25:24.977Z,88204.00
2023-04-16T08:26:24.974Z,88204.00
2023-04-16T08:27:24.964Z,88204.00
2023-04-16T08:28:24.961Z,88205.00
2023-04-16T08:29:24.960Z,88207.00
2023-04-16T08:30:24.947Z,88209.00
2023-04-16T08:31:24.959Z,88209.00
2023-04-16T08:32:24.945Z,88211.00
2023-04-16T08:33:24.910Z,88209.00
2023-04-16T08:34:24.900Z,88211.00
2023-04-16T08:35:24.909Z,88209.00
2023-04-16T08:36:24.881Z,88213.00
2023-04-16T08:37:24.871Z,88211.00
2023-04-16T08:38:24.871Z,88215.00
2023-04-16T08:39:24.868Z,88215.00
2023-04-16T08:40:24.862Z,88221.00
2023-04-16T08:41:24.877Z,88221.00
2023-04-16T08:42:24.866Z,88221.00
2023-04-16T08:43:24.855Z,88221.00
2023-04-16T08:44:24.857Z,88223.00
2023-04-16T08:45:24.850Z,88219.00
2023-04-16T08:46:24.982Z,88221.00
2023-04-16T08:47:24.869Z,88223.00
2023-04-16T08:48:24.836Z,88223.00
2023-04-16T08:49:24.826Z,88217.00
2023-04-16T08:50:24.830Z,88219.00
2023-04-16T08:51:24.829Z,88221.00
2023-04-16T08:52:24.825Z,88217.00
2023-04-16T08:53:24.828Z,88221.00
2023-04-16T08:54:24.827Z,88219.00
2023-04-16T08:55:24.829Z,88219.00
2023-04-16T08:56:24.821Z,88223.00
2023-04-16T08:57:24.810Z,88225.00
2023-04-16T08:58:24.814Z,88229.00
2023-04-16T08:59:24.834Z,88225.00
2023-04-16T09:00:24.855Z,88225.00
2023-04-16T09:01:24.893Z,88227.00
2023-04-16T09:02:25.050Z,88227.00
2023-04-16T09:03:24.966Z,88225.00
2023-04-16T09:04:25.012Z,88227.00
2023-04-16T09:05:24.845Z,88227.00
2023-04-16T09:06:24.830Z,88227.00
2023-04-16T09:07:24.817Z,88229.00
2023-04-16T09:08:24.803Z,88229.00
2023-04-16T09:09:24.786Z,88231.00
2023-04-16T09:10:24.778Z,88233.00
2023-04-16T09:11:24.758Z,88235.00
2023-04-16T09:12:24.748Z,88237.00
2023-04-16T09:13:24.724Z,88237.00
2023-04-16T09:14:24.710Z,88237.00
2023-04-16T09:15:24.694Z,88237.00
2023-04-16T09:16:24.760Z,88237.00
2023-04-16T09:17:24.838Z,88237.00
2023-04-16T09:18:24.833Z,88237.00
2023-04-16T09:19:24.883Z,88239.00
2023-04-16T09:20:24.919Z,88239.00
2023-04-16T09:21:24.978Z,88239.00
2023-04-16T09:22:24.943Z,88243.00
2023-04-16T09:23:24.923Z,88239.00
2023-04-16T09:24:24.898Z,88237.00
2023-04-16T09:25:24.899Z,88241.00
2023-04-16T09:26:24.869Z,88237.00
2023-04-16T09:27:26.141Z,88239.00
2023-04-16T09:28:24.823Z,88241.00
2023-04-16T09:29:24.803Z,88241.00
2023-04-16T09:30:24.795Z,88237.00
2023-04-16T09:31:24.777Z,88235.00
2023-04-16T09:32:24.776Z,88237.00
2023-04-16T09:33:24.736Z,88235.00
2023-04-16T09:34:24.701Z,88237.00
2023-04-16T09:35:24.677Z,88241.00
2023-04-16T09:36:24.674Z,88243.00
2023-04-16T09:37:24.632Z,88241.00
2023-04-16T09:38:24.618Z,88239.00
2023-04-16T09:39:24.634Z,88241.00
2023-04-16T09:40:24.657Z,88241.00
2023-04-16T09:41:24.708Z,88239.00
2023-04-16T09:42:24.727Z,88243.00
2023-04-16T09:43:24.760Z,88241.00
2023-04-16T09:44:24.791Z,88243.00
2023-04-16T09:45:24.828Z,88241.00
2023-04-16T09:46:24.960Z,88243.00
2023-04-16T09:47:24.942Z,88241.00
2023-04-16T09:48:24.899Z,88243.00
2023-04-16T09:49:24.923Z,88243.00
2023-04-16T09:50:24.940Z,88245.00
2023-04-16T09:51:24.977Z,88247.00
2023-04-16T09:52:25.003Z,88243.00
2023-04-16T09:53:25.031Z,88243.00
2023-04-16T09:54:25.053Z,88245.00
2023-04-16T09:55:25.084Z,88247.00
2023-04-16T09:56:25.104Z,88245.00
2023-04-16T09:57:25.132Z,88243.00
2023-04-16T09:58:25.150Z,88245.00
2023-04-16T09:59:25.150Z,88241.00
2023-04-16T10:00:25.184Z,88243.00
2023-04-16T10:01:25.222Z,88247.00
2023-04-16T10:02:25.197Z,88245.00
2023-04-16T10:03:25.161Z,88243.00
2023-04-16T10:04:25.099Z,88243.00
2023-04-16T10:05:25.027Z,88245.00
2023-04-16T10:06:25.007Z,88243.00
2023-04-16T10:07:24.971Z,88247.00
2023-04-16T10:08:24.934Z,88249.00
2023-04-16T10:09:24.902Z,88245.00
2023-04-16T10:10:24.857Z,88245.00
2023-04-16T10:11:24.832Z,88245.00
2023-04-16T10:12:24.801Z,88247.00
2023-04-16T10:13:24.767Z,88247.00
2023-04-16T10:14:24.736Z,88245.00
2023-04-16T10:15:24.710Z,88243.00
2023-04-16T10:16:24.722Z,88247.00
2023-04-16T10:17:24.683Z,88247.00
2023-04-16T10:18:24.653Z,88249.00
2023-04-16T10:19:24.671Z,88247.00
2023-04-16T10:20:24.674Z,88243.00
2023-04-16T10:21:24.686Z,88243.00
2023-04-16T10:22:24.690Z,88239.00
2023-04-16T10:23:24.695Z,88241.00
2023-04-16T10:24:24.715Z,88245.00
2023-04-16T10:25:24.736Z,88237.00
2023-04-16T10:26:24.717Z,88243.00
2023-04-16T10:27:24.722Z,88243.00
2023-04-16T10:28:24.730Z,88245.00
2023-04-16T10:29:24.723Z,88243.00
2023-04-16T10:30:24.722Z,88241.00
2023-04-16T10:31:24.750Z,88235.00
2023-04-16T10:32:24.739Z,88245.00
2023-04-16T10:33:24.706Z,88241.00
2023-04-16T10:34:24.707Z,88241.00
2023-04-16T10:35:24.711Z,88245.00
2023-04-16T10:36:24.680Z,88243.00
2023-04-16T10:37:24.674Z,88243.00
2023-04-16T10:38:24.672Z,88243.00
2023-04-16T10:39:24.652Z,88241.00
2023-04-16T10:40:24.645Z,88237.00
2023-04-16T10:41:24.641Z,88239.00
2023-04-16T10:42:24.641Z,88241.00
2023-04-16T10:43:24.626Z,88239.00
2023-04-16T10:44:24.613Z,88241.00
2023-04-16T10:45:24.611Z,88235.00
2023-04-16T10:46:24.698Z,88241.00
2023-04-16T10:47:24.649Z,88241.00
2023-04-16T10:48:24.598Z,88237.00
2023-04-16T10:49:24.564Z,88237.00
2023-04-16T10:50:24.553Z,88239.00
2023-04-16T10:51:24.614Z,88239.00
2023-04-16T10:52:24.555Z,88237.00
2023-04-16T10:53:24.519Z,88241.00
2023-04-16T10:54:24.518Z,88241.00
2023-04-16T10:55:24.490Z,88241.00
2023-04-16T10:56:24.471Z,88243.00
2023-04-16T10:57:24.467Z,88245.00
2023-04-16T10:58:24.457Z,88245.00
2023-04-16T10:59:24.429Z,88239.00
2023-04-16T11:00:24.429Z,88245.00
2023-04-16T11:01:24.447Z,88245.00
2023-04-16T11:02:27.188Z,88245.00
2023-04-16T11:03:24.468Z,88245.00
2023-04-16T11:04:24.481Z,88249.00
2023-04-16T11:05:24.250Z,88247.00
2023-04-16T11:06:24.208Z,88247.00
2023-04-16T11:07:24.166Z,88254.00
2023-04-16T11:08:25.314Z,88245.00
2023-04-16T11:09:24.102Z,88249.00
2023-04-16T11:10:24.056Z,88251.00
2023-04-16T11:11:24.013Z,88251.00
2023-04-16T11:12:24.004Z,88252.00
2023-04-16T11:13:23.946Z,88249.00
2023-04-16T11:14:23.906Z,88251.00
2023-04-16T11:15:23.868Z,88251.00
2023-04-16T11:16:23.869Z,88251.00
2023-04-16T11:17:23.813Z,88252.00
2023-04-16T11:18:23.755Z,88251.00
2023-04-16T11:19:23.711Z,88252.00
2023-04-16T11:20:23.690Z,88252.00
2023-04-16T11:21:23.646Z,88252.00
2023-04-16T11:22:23.612Z,88254.00
2023-04-16T11:23:23.624Z,88249.00
2023-04-16T11:24:25.633Z,88254.00
2023-04-16T11:25:23.691Z,88256.00
2023-04-16T11:26:23.640Z,88256.00
2023-04-16T11:27:23.615Z,88252.00
2023-04-16T11:28:23.561Z,88252.00
2023-04-16T11:29:23.522Z,88251.00
2023-04-16T11:30:23.492Z,88258.00
2023-04-16T11:31:23.620Z,88265.00
2023-04-16T11:32:23.467Z,88258.00
2023-04-16T11:33:23.365Z,88258.00
2023-04-16T11:34:23.327Z,88249.00
2023-04-16T11:35:23.297Z,88256.00
2023-04-16T11:36:24.883Z,88265.00
2023-04-16T11:37:23.227Z,88254.00
2023-04-16T11:38:23.197Z,88265.00
2023-04-16T11:39:23.177Z,88256.00
2023-04-16T11:40:23.125Z,88256.00
2023-04-16T11:41:23.109Z,88258.00
2023-04-16T11:42:23.138Z,88258.00
2023-04-16T11:43:23.008Z,88265.00
2023-04-16T11:44:22.960Z,88258.00